Time;durP1;ratioP1;P1;durP2;ratioP2;P2;SDS_P1;SDS_P2;PMS_P1;PMS_P2;Temp;Humidity;BMP_temperature;BMP_pressure;BME280_temperature;BME280_humidity;BME280_pressure;Samples;Min_cycle;Max_cycle;Signal;HPM_P1;HPM_P2
2023/08/24 00:01:16;;;;;;;4.00;2.35;;;;;;;25.72;63.29;99680.44;4461494;32;33515;-82
2023/08/24 00:03:47;;;;;;;5.35;2.53;;;;;;;25.68;63.33;99673.66;4464037;32;33633;-82
2023/08/24 00:06:16;;;;;;;;;;;;;;;25.70;63.35;99677.91;4471995;32;33231;-82
2023/08/24 00:08:47;;;;;;;2.05;1.17;;;;;;;25.68;63.54;99676.31;4473063;32;34113;-81
2023/08/24 00:11:16;;;;;;;3.83;1.98;;;;;;;25.87;62.89;99679.28;4462970;32;33423;-82
2023/08/24 00:13:48;;;;;;;3.72;2.17;;;;;;;25.80;63.18;99670.06;4466215;32;34150;-82
2023/08/24 00:16:18;;;;;;;3.55;2.00;;;;;;;25.66;63.58;99675.59;4464374;32;32936;-82
2023/08/24 00:18:47;;;;;;;4.53;2.25;;;;;;;25.78;63.19;99664.03;4475178;32;33400;-82
2023/08/24 00:21:19;;;;;;;4.45;2.40;;;;;;;25.60;63.71;99668.09;4461333;32;34551;-82
2023/08/24 00:23:49;;;;;;;5.57;2.78;;;;;;;25.77;63.08;99676.47;4466298;32;33770;-82
2023/08/24 00:26:18;;;;;;;3.35;2.15;;;;;;;25.22;64.94;99677.12;4456797;32;35181;-82
2023/08/24 00:28:47;;;;;;;4.05;2.25;;;;;;;25.40;64.41;99675.78;4462607;32;34615;-82
2023/08/24 00:31:17;;;;;;;4.95;2.65;;;;;;;25.64;63.69;99674.88;4461659;32;34504;-82
2023/08/24 00:33:45;;;;;;;4.25;2.40;;;;;;;25.52;64.19;99676.66;4458205;32;33417;-81
2023/08/24 00:36:15;;;;;;;3.62;2.00;;;;;;;25.35;64.81;99675.28;4456734;32;34254;-82
2023/08/24 00:38:45;;;;;;;4.55;2.55;;;;;;;25.45;64.28;99672.78;4461212;32;34226;-82
2023/08/24 00:41:16;;;;;;;4.50;2.00;;;;;;;25.43;64.29;99669.38;4471760;32;33610;-82
2023/08/24 00:43:45;;;;;;;5.80;2.28;;;;;;;25.52;63.84;99664.22;4463057;32;33976;-82
2023/08/24 00:46:14;;;;;;;4.15;2.22;;;;;;;25.72;63.17;99669.81;4463762;32;33997;-82
2023/08/24 00:48:43;;;;;;;4.12;2.53;;;;;;;25.34;64.22;99677.06;4460449;32;33679;-82
2023/08/24 00:51:12;;;;;;;4.40;2.08;;;;;;;25.47;63.90;99677.00;4475404;32;33852;-82
2023/08/24 00:53:41;;;;;;;4.15;2.20;;;;;;;25.52;63.72;99682.81;4463996;32;33618;-82
2023/08/24 00:56:10;;;;;;;5.32;2.10;;;;;;;25.45;63.78;99681.59;4463770;32;34445;-82
2023/08/24 00:58:41;;;;;;;4.30;2.37;;;;;;;25.25;64.55;99687.53;4461390;32;33707;-81
2023/08/24 01:01:09;;;;;;;3.45;2.00;;;;;;;25.30;64.42;99691.56;4464831;32;33268;-82
2023/08/24 01:03:39;;;;;;;5.32;2.37;;;;;;;25.23;64.80;99686.81;4469780;32;33608;-82
2023/08/24 01:06:07;;;;;;;3.70;2.10;;;;;;;25.17;64.85;99687.22;4464596;32;33468;-82
2023/08/24 01:08:37;;;;;;;4.45;2.33;;;;;;;25.34;64.24;99690.34;4463060;32;34482;-82
2023/08/24 01:11:12;;;;;;;3.95;2.15;;;;;;;25.09;64.90;99683.31;4463893;32;33028;-82
2023/08/24 01:13:51;;;;;;;3.80;2.05;;;;;;;25.22;64.53;99687.75;4473123;32;33260;-82
2023/08/24 01:16:26;;;;;;;4.03;1.75;;;;;;;25.32;64.00;99686.09;4460470;32;33909;-82
2023/08/24 01:18:56;;;;;;;4.97;2.53;;;;;;;25.13;64.64;99676.84;4465595;32;33617;-82
2023/08/24 01:21:26;;;;;;;4.30;2.67;;;;;;;25.12;64.75;99676.94;4466048;32;34540;-82
2023/08/24 01:24:00;;;;;;;4.18;1.85;;;;;;;25.18;64.44;99673.00;4468831;32;34631;-82
2023/08/24 01:26:31;;;;;;;2.83;1.80;;;;;;;25.13;64.44;99673.34;4471421;32;33107;-82
2023/08/24 01:29:00;;;;;;;4.22;2.30;;;;;;;25.17;64.36;99673.94;4461804;32;32639;-82
2023/08/24 01:31:29;;;;;;;4.10;2.15;;;;;;;24.88;65.41;99680.44;4462451;32;34493;-82
2023/08/24 01:33:58;;;;;;;2.35;1.30;;;;;;;25.00;64.94;99676.03;4465228;32;33431;-82
2023/08/24 01:36:27;;;;;;;3.72;2.00;;;;;;;25.06;64.55;99675.59;4472195;32;33025;-82
2023/08/24 01:39:00;;;;;;;4.40;2.53;;;;;;;24.90;65.31;99680.31;4469089;32;33852;-82
2023/08/24 01:41:38;;;;;;;4.15;2.28;;;;;;;24.95;65.13;99672.03;4462625;32;34095;-82
2023/08/24 01:44:13;;;;;;;4.65;2.60;;;;;;;24.84;65.54;99675.44;4462605;32;34108;-82
2023/08/24 01:46:43;;;;;;;3.65;1.95;;;;;;;24.83;65.80;99673.78;4462542;32;34826;-82
2023/08/24 01:49:13;;;;;;;3.87;1.77;;;;;;;24.95;65.08;99670.22;4473261;32;32932;-82
2023/08/24 01:51:43;;;;;;;2.92;1.62;;;;;;;24.92;65.45;99673.94;4466692;32;33653;-82
2023/08/24 01:54:12;;;;;;;3.08;1.98;;;;;;;25.02;65.03;99671.47;4459160;32;31837;-82
2023/08/24 01:56:42;;;;;;;4.30;2.40;;;;;;;25.07;64.96;99671.13;4462395;32;32933;-82
2023/08/24 01:59:11;;;;;;;2.90;1.45;;;;;;;25.10;64.88;99666.47;4468655;32;33771;-82
2023/08/24 02:01:40;;;;;;;4.12;2.37;;;;;;;25.31;64.04;99668.50;4473678;32;33951;-82
2023/08/24 02:04:09;;;;;;;4.80;2.62;;;;;;;25.27;64.40;99673.19;4470513;32;33528;-82
2023/08/24 02:06:38;;;;;;;4.62;2.42;;;;;;;25.24;64.40;99672.56;4465023;32;32942;-82
2023/08/24 02:09:06;;;;;;;3.97;2.05;;;;;;;25.20;64.74;99669.31;4460373;32;33283;-82
2023/08/24 02:11:35;;;;;;;3.20;1.75;;;;;;;25.21;64.63;99678.12;4466620;32;33752;-82
2023/08/24 02:14:05;;;;;;;4.53;2.15;;;;;;;25.13;65.07;99673.34;4466072;32;33435;-82
2023/08/24 02:16:37;;;;;;;4.00;1.70;;;;;;;25.27;64.31;99662.56;4459900;32;33999;-82
2023/08/24 02:19:07;;;;;;;3.80;1.90;;;;;;;25.34;63.84;99668.25;4472708;32;33391;-82
2023/08/24 02:21:36;;;;;;;4.82;2.42;;;;;;;25.19;64.58;99666.75;4466252;32;33899;-82
2023/08/24 02:24:06;;;;;;;6.18;2.20;;;;;;;25.28;63.96;99666.91;4465485;32;33952;-82
2023/08/24 02:26:35;;;;;;;4.22;2.12;;;;;;;25.23;64.22;99665.56;4459596;32;32863;-81
2023/08/24 02:29:08;;;;;;;3.85;1.92;;;;;;;25.39;63.23;99660.78;4459703;32;33461;-82
2023/08/24 02:31:36;;;;;;;2.78;1.65;;;;;;;25.32;63.83;99664.84;4465096;32;33690;-82
2023/08/24 02:34:05;;;;;;;4.60;2.25;;;;;;;25.36;63.52;99668.16;4479196;32;34015;-82
2023/08/24 02:36:35;;;;;;;4.32;2.22;;;;;;;25.29;63.64;99663.28;4465908;32;32884;-82
2023/08/24 02:39:05;;;;;;;3.60;1.90;;;;;;;25.41;63.10;99664.19;4461519;32;34499;-82
2023/08/24 02:41:34;;;;;;;4.32;2.30;;;;;;;25.41;62.83;99660.69;4463283;32;33586;-82
2023/08/24 02:44:04;;;;;;;4.53;1.95;;;;;;;25.35;63.24;99662.00;4463089;32;33781;-82
2023/08/24 02:46:34;;;;;;;4.47;2.50;;;;;;;25.36;63.27;99660.19;4463967;32;34055;-81
2023/08/24 02:49:03;;;;;;;4.82;2.58;;;;;;;25.38;63.18;99667.06;4462080;32;33238;-81
2023/08/24 02:51:32;;;;;;;3.90;2.22;;;;;;;25.27;63.83;99656.41;4459881;32;33658;-82
2023/08/24 02:54:01;;;;;;;5.00;2.17;;;;;;;25.25;63.75;99672.47;4465021;32;34452;-82
2023/08/24 02:56:29;;;;;;;3.53;2.25;;;;;;;25.12;64.17;99664.50;4472916;32;34063;-82
2023/08/24 02:58:59;;;;;;;3.85;2.05;;;;;;;25.39;63.05;99663.44;4460667;32;33949;-82
2023/08/24 03:01:27;;;;;;;4.65;2.28;;;;;;;25.32;63.22;99664.84;4458730;32;34344;-82
2023/08/24 03:03:57;;;;;;;3.37;1.77;;;;;;;25.23;63.57;99662.91;4453698;32;33562;-81
2023/08/24 03:06:27;;;;;;;2.95;1.55;;;;;;;25.37;62.97;99669.84;4470775;32;33762;-82
2023/08/24 03:08:56;;;;;;;3.87;1.98;;;;;;;25.24;63.26;99661.94;4465531;32;34137;-82
2023/08/24 03:11:24;;;;;;;3.28;1.73;;;;;;;25.22;63.28;99664.69;4462392;32;33708;-82
2023/08/24 03:13:55;;;;;;;3.72;1.87;;;;;;;25.18;63.51;99662.38;4459021;32;33719;-82
2023/08/24 03:16:24;;;;;;;;;;;;;;;25.20;63.42;99660.47;4468131;32;32605;-82
2023/08/24 03:18:54;;;;;;;4.50;2.33;;;;;;;25.24;63.13;99654.81;4469072;32;34588;-82
2023/08/24 03:21:24;;;;;;;3.15;1.75;;;;;;;25.25;63.12;99659.19;4466706;32;34466;-82
2023/08/24 03:23:54;;;;;;;3.62;2.03;;;;;;;25.25;63.25;99660.97;4459427;32;33417;-83
2023/08/24 03:26:23;;;;;;;3.78;2.12;;;;;;;25.15;63.64;99665.25;4458879;32;33585;-82
2023/08/24 03:28:54;;;;;;;3.70;2.00;;;;;;;25.24;63.38;99660.13;4463977;32;34377;-82
2023/08/24 03:31:25;;;;;;;4.03;2.03;;;;;;;25.18;63.61;99663.25;4460616;32;34914;-82
2023/08/24 03:33:55;;;;;;;3.72;2.05;;;;;;;25.21;63.61;99664.84;4474889;32;32904;-82
2023/08/24 03:36:25;;;;;;;3.42;1.85;;;;;;;25.03;64.06;99662.56;4465753;32;32959;-82
2023/08/24 03:38:54;;;;;;;3.33;2.03;;;;;;;25.13;63.67;99662.72;4466008;32;33529;-82
2023/08/24 03:41:23;;;;;;;2.78;1.73;;;;;;;25.14;63.74;99667.06;4475888;32;33538;-82
2023/08/24 03:43:52;;;;;;;3.47;1.83;;;;;;;24.95;64.62;99670.22;4458402;32;34624;-82
2023/08/24 03:46:21;;;;;;;4.25;2.50;;;;;;;25.16;63.75;99677.56;4467241;32;33655;-82
2023/08/24 03:48:50;;;;;;;3.75;1.80;;;;;;;25.12;63.83;99676.94;4457920;32;34463;-82
2023/08/24 03:51:19;;;;;;;3.05;1.70;;;;;;;25.06;63.94;99678.25;4466840;32;34021;-82
2023/08/24 03:53:49;;;;;;;3.53;2.05;;;;;;;25.08;63.75;99670.16;4468590;32;34395;-82
2023/08/24 03:56:18;;;;;;;4.03;1.65;;;;;;;24.82;64.60;99675.59;4458854;32;32557;-82
2023/08/24 03:58:47;;;;;;;4.72;2.08;;;;;;;25.00;64.08;99667.22;4464525;32;34007;-82
2023/08/24 04:01:16;;;;;;;3.40;2.15;;;;;;;24.89;64.53;99676.84;4461071;32;33616;-82
2023/08/24 04:03:51;;;;;;;3.15;1.73;;;;;;;24.74;65.09;99674.44;4471965;32;33898;-82
2023/08/24 04:06:20;;;;;;;3.58;2.10;;;;;;;24.84;64.68;99673.66;4461691;32;34107;-82
2023/08/24 04:08:50;;;;;;;3.08;1.73;;;;;;;24.78;64.99;99678.56;4467013;32;34659;-82
2023/08/24 04:11:19;;;;;;;4.62;2.10;;;;;;;24.69;65.52;99672.97;4458629;32;33202;-82
2023/08/24 04:13:48;;;;;;;3.22;2.00;;;;;;;24.69;65.20;99675.63;4468631;32;34571;-82
2023/08/24 04:16:17;;;;;;;3.58;1.87;;;;;;;24.79;64.95;99675.81;4458481;32;34190;-82
2023/08/24 04:18:46;;;;;;;3.62;1.75;;;;;;;24.71;65.38;99670.19;4459213;32;33912;-82
2023/08/24 04:21:15;;;;;;;3.05;1.87;;;;;;;24.75;65.25;99678.78;4468805;32;34036;-82
2023/08/24 04:23:45;;;;;;;7.05;2.30;;;;;;;25.02;64.31;99671.47;4465902;32;34184;-82
2023/08/24 04:26:15;;;;;;;3.17;2.47;;;;;;;24.84;65.06;99673.66;4472531;32;32562;-82
2023/08/24 04:28:44;;;;;;;4.32;2.28;;;;;;;24.97;64.31;99675.44;4461557;32;33631;-82
2023/08/24 04:31:12;;;;;;;4.90;2.30;;;;;;;24.99;64.62;99671.69;4466443;32;34090;-82
2023/08/24 04:33:41;;;;;;;5.45;2.05;;;;;;;24.92;64.83;99673.09;4469090;32;34569;-82
2023/08/24 04:36:10;;;;;;;7.40;2.30;;;;;;;24.83;65.43;99677.25;4470893;32;32857;-82
2023/08/24 04:38:39;;;;;;;3.45;1.98;;;;;;;24.94;65.12;99684.47;4462819;32;33543;-82
2023/08/24 04:41:09;;;;;;;3.08;2.08;;;;;;;24.83;65.46;99679.06;4460556;32;33559;-82
2023/08/24 04:43:39;;;;;;;5.28;2.53;;;;;;;24.78;65.86;99682.06;4465241;32;33585;-81
2023/08/24 04:46:12;;;;;;;3.42;2.03;;;;;;;24.97;65.05;99672.78;4473498;32;32409;-82
2023/08/24 04:48:41;;;;;;;4.15;2.17;;;;;;;25.00;65.12;99676.03;4470245;32;33435;-82
2023/08/24 04:51:10;;;;;;;3.00;1.70;;;;;;;24.85;65.91;99679.81;4472685;32;33726;-82
2023/08/24 04:53:38;;;;;;;3.33;1.75;;;;;;;24.84;65.75;99683.41;4464788;32;33558;-82
2023/08/24 04:56:07;;;;;;;4.32;2.28;;;;;;;25.04;65.17;99688.13;4469922;32;33379;-82
2023/08/24 04:58:36;;;;;;;3.72;2.17;;;;;;;24.93;65.86;99698.66;4467920;32;34645;-82
2023/08/24 05:01:06;;;;;;;3.53;1.95;;;;;;;25.06;65.10;99702.13;4461985;32;33603;-82
2023/08/24 05:03:35;;;;;;;4.32;2.20;;;;;;;25.15;65.12;99691.78;4470244;32;32976;-80
2023/08/24 05:06:04;;;;;;;3.58;2.03;;;;;;;25.24;64.72;99694.66;4463117;32;33711;-81
2023/08/24 05:08:34;;;;;;;4.03;2.03;;;;;;;25.25;64.35;99699.00;4469311;32;33409;-81
2023/08/24 05:11:03;;;;;;;3.30;1.90;;;;;;;25.31;63.80;99708.31;4465923;32;34499;-82
2023/08/24 05:13:31;;;;;;;4.30;2.25;;;;;;;25.33;64.06;99701.09;4464331;32;34420;-81
2023/08/24 05:16:00;;;;;;;4.18;1.98;;;;;;;25.26;64.21;99705.16;4460692;32;33863;-81
2023/08/24 05:18:31;;;;;;;3.83;2.00;;;;;;;25.42;63.66;99711.03;4461777;32;33350;-81
2023/08/24 05:20:59;;;;;;;3.80;2.10;;;;;;;25.45;63.19;99713.47;4469093;32;34606;-81
2023/08/24 05:23:28;;;;;;;3.12;1.80;;;;;;;25.52;63.71;99712.03;4467204;32;33374;-82
2023/08/24 05:25:57;;;;;;;2.58;1.77;;;;;;;25.89;61.89;99709.28;4466021;32;33062;-81
2023/08/24 05:28:26;;;;;;;3.95;2.15;;;;;;;26.58;59.79;99708.41;4470483;31;33531;-82
2023/08/24 05:30:57;;;;;;;3.53;1.50;;;;;;;27.23;57.59;99712.03;4472336;32;33989;-82
2023/08/24 05:33:27;;;;;;;4.35;2.17;;;;;;;27.84;55.80;99712.28;4463869;32;33981;-82
2023/08/24 05:35:58;;;;;;;4.97;2.42;;;;;;;28.38;53.83;99720.13;4470206;32;34200;-82
2023/08/24 05:38:27;;;;;;;3.35;2.08;;;;;;;28.46;53.37;99723.88;4475103;32;33526;-82
2023/08/24 05:40:56;;;;;;;4.43;2.28;;;;;;;28.64;52.91;99723.22;4471452;32;34182;-82
2023/08/24 05:43:24;;;;;;;4.18;2.22;;;;;;;28.50;52.76;99719.09;4476698;32;34282;-82
2023/08/24 05:45:53;;;;;;;3.25;2.00;;;;;;;28.53;52.69;99723.31;4461833;32;34219;-82
2023/08/24 05:48:22;;;;;;;4.07;2.15;;;;;;;28.35;53.41;99726.59;4459802;32;34531;-82
2023/08/24 05:50:51;;;;;;;4.50;2.22;;;;;;;28.22;54.43;99732.16;4475108;32;33651;-82
2023/08/24 05:53:21;;;;;;;3.92;2.25;;;;;;;28.35;54.21;99723.91;4481260;32;33471;-82
2023/08/24 05:55:50;;;;;;;2.80;1.50;;;;;;;28.38;54.21;99715.62;4468665;32;33671;-82
2023/08/24 05:58:18;;;;;;;3.47;1.73;;;;;;;28.18;54.19;99730.72;4462925;32;34444;-82
2023/08/24 06:00:48;;;;;;;3.58;1.80;;;;;;;27.96;55.41;99729.03;4469232;32;34657;-82
2023/08/24 06:03:17;;;;;;;2.95;1.65;;;;;;;27.96;55.80;99728.22;4482102;32;34319;-82
2023/08/24 06:05:45;;;;;;;3.47;1.70;;;;;;;27.75;55.89;99729.00;4475852;32;33951;-82
2023/08/24 06:08:14;;;;;;;3.05;1.87;;;;;;;27.60;55.83;99723.16;4476649;32;33846;-81
2023/08/24 06:10:44;;;;;;;2.45;1.48;;;;;;;27.45;56.12;99727.94;4475905;32;33592;-82
2023/08/24 06:13:13;;;;;;;4.50;2.10;;;;;;;27.28;57.45;99732.94;4471284;32;35203;-81
2023/08/24 06:15:46;;;;;;;3.17;1.98;;;;;;;27.24;57.25;99730.56;4470443;32;33168;-82
2023/08/24 06:18:15;;;;;;;3.80;1.83;;;;;;;27.26;57.07;99737.59;4463041;32;34638;-82
2023/08/24 06:20:45;;;;;;;3.83;2.23;;;;;;;27.27;58.00;99728.59;4461037;32;33648;-82
2023/08/24 06:23:14;;;;;;;3.63;2.10;;;;;;;27.18;58.12;99728.38;4467622;32;33837;-81
2023/08/24 06:25:44;;;;;;;4.45;2.25;;;;;;;27.42;57.64;99730.00;4480280;32;32682;-82
2023/08/24 06:28:13;;;;;;;3.50;1.92;;;;;;;27.17;58.11;99732.00;4461711;32;33024;-81
2023/08/24 06:30:43;;;;;;;3.42;1.90;;;;;;;27.34;57.18;99735.13;4464471;32;34838;-82
2023/08/24 06:33:12;;;;;;;3.67;2.20;;;;;;;27.73;55.69;99732.78;4464240;32;33549;-81
2023/08/24 06:35:41;;;;;;;3.12;1.87;;;;;;;27.83;55.71;99739.88;4468389;32;33194;-82
2023/08/24 06:38:10;;;;;;;3.95;1.75;;;;;;;27.70;56.48;99733.03;4474299;32;34271;-82
2023/08/24 06:40:39;;;;;;;3.62;1.83;;;;;;;27.61;56.90;99737.31;4466980;32;34417;-81
2023/08/24 06:43:10;;;;;;;2.42;1.37;;;;;;;27.72;56.60;99729.28;4470644;32;33898;-82
2023/08/24 06:45:39;;;;;;;4.18;2.35;;;;;;;27.93;56.20;99731.94;4471279;32;33411;-82
2023/08/24 06:48:07;;;;;;;6.47;3.03;;;;;;;27.89;55.48;99727.03;4473544;32;34271;-82
2023/08/24 06:50:37;;;;;;;3.33;1.92;;;;;;;27.94;55.73;99733.66;4459604;32;33753;-82
2023/08/24 06:53:06;;;;;;;3.45;1.92;;;;;;;28.37;54.63;99737.13;4460204;32;34268;-82
2023/08/24 06:55:35;;;;;;;3.35;1.83;;;;;;;28.15;54.96;99732.78;4460347;32;33968;-82
2023/08/24 06:58:06;;;;;;;3.28;1.95;;;;;;;28.30;54.50;99732.31;4460162;32;33080;-81
2023/08/24 07:00:36;;;;;;;2.67;1.25;;;;;;;27.97;55.53;99733.38;4465763;32;33448;-80
2023/08/24 07:03:05;;;;;;;;;;;;;;;28.18;54.91;99728.06;4460181;32;33325;-81
2023/08/24 07:05:34;;;;;;;3.08;1.85;;;;;;;28.41;54.21;99734.03;4465944;32;33142;-82
2023/08/24 07:08:05;;;;;;;3.35;1.42;;;;;;;28.32;54.07;99720.66;4461218;32;33507;-82
2023/08/24 07:10:34;;;;;;;3.15;1.95;;;;;;;27.98;54.89;99729.78;4470196;32;33940;-82
2023/08/24 07:13:03;;;;;;;4.15;2.08;;;;;;;28.26;53.96;99725.56;4465003;32;33522;-81
2023/08/24 07:15:34;;;;;;;2.97;1.92;;;;;;;28.54;52.86;99725.88;4464956;32;33924;-82
2023/08/24 07:18:05;;;;;;;;;;;;;;;28.29;54.11;99735.09;4462316;32;33778;-81
2023/08/24 07:20:34;;;;;;;3.10;1.80;;;;;;;28.37;54.32;99731.81;4470230;32;33647;-82
2023/08/24 07:23:03;;;;;;;4.18;2.03;;;;;;;28.57;53.35;99736.25;4471440;32;33782;-81
2023/08/24 07:25:32;;;;;;;3.78;2.00;;;;;;;28.53;52.38;99739.34;4463292;32;33777;-81
2023/08/24 07:28:03;;;;;;;4.50;2.25;;;;;;;28.58;53.32;99731.75;4466760;32;33638;-81
2023/08/24 07:30:32;;;;;;;5.22;2.30;;;;;;;28.60;53.43;99740.47;4463298;32;33742;-82
2023/08/24 07:33:04;;;;;;;3.95;1.95;;;;;;;28.48;54.63;99732.56;4470765;32;33456;-81
2023/08/24 07:35:33;;;;;;;4.90;2.55;;;;;;;28.69;54.14;99729.84;4465208;32;33931;-82
2023/08/24 07:38:04;;;;;;;3.75;1.83;;;;;;;28.66;53.94;99732.78;4464836;32;34109;-81
2023/08/24 07:40:33;;;;;;;;;;;;;;;28.96;53.02;99727.53;4463478;32;33325;-81
2023/08/24 07:43:01;;;;;;;5.03;2.05;;;;;;;29.02;51.14;99727.84;4472572;32;34674;-81
2023/08/24 07:45:31;;;;;;;3.30;1.40;;;;;;;29.06;50.59;99728.38;4477993;32;33837;-81
2023/08/24 07:47:59;;;;;;;3.72;1.77;;;;;;;28.99;48.22;99730.75;4467423;32;33974;-81
2023/08/24 07:50:30;;;;;;;3.53;1.67;;;;;;;29.03;48.68;99728.66;4472525;32;33426;-82
2023/08/24 07:53:01;;;;;;;2.47;1.50;;;;;;;29.07;48.37;99730.97;4470320;32;33692;-81
2023/08/24 07:55:30;;;;;;;5.82;2.15;;;;;;;29.11;47.74;99731.53;4465338;32;33844;-82
2023/08/24 07:57:59;;;;;;;2.92;1.60;;;;;;;28.89;48.77;99735.25;4464278;32;33343;-81
2023/08/24 08:00:28;;;;;;;2.95;1.87;;;;;;;28.92;49.56;99730.47;4467401;32;33756;-81
2023/08/24 08:02:57;;;;;;;4.35;1.90;;;;;;;29.15;48.80;99735.59;4468817;32;34471;-82
2023/08/24 08:05:26;;;;;;;2.53;1.50;;;;;;;29.03;49.03;99734.00;4473787;32;33014;-81
2023/08/24 08:07:56;;;;;;;4.35;2.22;;;;;;;29.26;49.48;99737.28;4467246;32;34324;-80
2023/08/24 08:10:25;;;;;;;3.30;1.70;;;;;;;28.93;49.13;99739.34;4466307;32;33195;-80
2023/08/24 08:12:54;;;;;;;2.50;1.48;;;;;;;28.94;49.19;99744.50;4462052;32;33782;-80
2023/08/24 08:15:23;;;;;;;3.53;1.60;;;;;;;29.08;48.47;99739.81;4463535;32;33615;-80
2023/08/24 08:17:53;;;;;;;3.17;1.80;;;;;;;29.11;49.31;99743.03;4464338;32;33570;-80
2023/08/24 08:20:22;;;;;;;2.92;1.70;;;;;;;29.31;49.55;99741.25;4458088;32;34653;-80
2023/08/24 08:22:51;;;;;;;3.55;1.60;;;;;;;29.40;49.79;99750.25;4461240;32;33263;-79
2023/08/24 08:25:22;;;;;;;4.12;2.03;;;;;;;29.39;49.56;99742.37;4467114;32;33463;-80
2023/08/24 08:27:51;;;;;;;3.95;2.20;;;;;;;29.35;49.30;99737.31;4465846;32;33208;-80
2023/08/24 08:30:21;;;;;;;5.35;2.08;;;;;;;29.26;49.19;99748.84;4461495;32;33594;-79
2023/08/24 08:32:50;;;;;;;3.37;1.80;;;;;;;29.25;49.34;99744.47;4464181;32;34546;-79
2023/08/24 08:35:20;;;;;;;2.97;1.75;;;;;;;29.50;47.46;99755.59;4462432;32;34221;-80
2023/08/24 08:37:53;;;;;;;2.95;1.40;;;;;;;29.46;47.28;99748.87;4466644;32;33607;-79
2023/08/24 08:40:24;;;;;;;;;;;;;;;29.40;45.58;99744.06;4475278;32;33055;-80
2023/08/24 08:42:53;;;;;;;4.30;1.85;;;;;;;29.51;45.42;99738.59;4463469;32;33381;-80
2023/08/24 08:45:26;;;;;;;3.42;1.65;;;;;;;29.50;46.48;99739.56;4458746;32;33431;-80
2023/08/24 08:47:57;;;;;;;2.58;1.58;;;;;;;29.37;45.75;99734.50;4472129;32;34512;-80
2023/08/24 08:50:26;;;;;;;2.37;1.37;;;;;;;29.58;45.89;99738.88;4475251;32;33629;-79
2023/08/24 08:52:59;;;;;;;3.05;1.73;;;;;;;29.16;46.26;99739.12;4474674;32;33942;-79
2023/08/24 08:55:30;;;;;;;2.62;1.48;;;;;;;29.28;45.49;99740.69;4459287;32;33470;-80
2023/08/24 08:57:59;;;;;;;;;;;;;;;29.43;45.85;99730.41;4464713;32;34697;-80
2023/08/24 09:00:28;;;;;;;2.05;1.60;;;;;;;29.65;45.09;99732.81;4461801;32;33958;-80
2023/08/24 09:02:57;;;;;;;3.08;1.52;;;;;;;29.65;45.31;99726.59;4470892;32;33906;-80
2023/08/24 09:05:27;;;;;;;3.03;1.77;;;;;;;29.71;44.52;99728.75;4465984;32;33105;-80
2023/08/24 09:07:56;;;;;;;3.22;1.42;;;;;;;29.82;43.49;99727.75;4467928;32;34652;-80
2023/08/24 09:10:25;;;;;;;3.00;1.20;;;;;;;29.89;43.53;99729.72;4470374;32;33683;-79
2023/08/24 09:12:55;;;;;;;2.22;1.17;;;;;;;30.12;43.71;99724.03;4466973;32;34261;-79
2023/08/24 09:15:28;;;;;;;4.55;1.58;;;;;;;30.11;43.30;99727.72;4459719;32;32688;-80
2023/08/24 09:18:01;;;;;;;3.60;1.40;;;;;;;29.99;42.74;99721.69;4471852;32;33631;-79
2023/08/24 09:20:30;;;;;;;1.77;1.23;;;;;;;30.12;42.96;99724.03;4474856;32;33655;-80
2023/08/24 09:22:59;;;;;;;3.37;1.50;;;;;;;30.19;42.33;99717.97;4461685;32;34560;-80
2023/08/24 09:25:28;;;;;;;2.22;1.17;;;;;;;30.23;42.47;99715.84;4464421;32;32897;-79
2023/08/24 09:27:58;;;;;;;4.20;1.58;;;;;;;30.36;41.52;99720.91;4470127;32;33642;-79
2023/08/24 09:30:31;;;;;;;2.28;1.20;;;;;;;30.13;41.06;99715.88;4464350;32;33763;-79
2023/08/24 09:33:04;;;;;;;3.45;1.75;;;;;;;30.28;41.27;99718.13;4462838;32;33882;-79
2023/08/24 09:35:36;;;;;;;2.15;1.30;;;;;;;30.08;39.80;99712.78;4479575;32;33859;-79
2023/08/24 09:38:19;;;;;;;2.78;1.33;;;;;;;30.09;40.08;99706.44;4467814;32;34250;-79
2023/08/24 09:40:48;;;;;;;2.05;1.33;;;;;;;30.24;40.52;99708.66;4475542;32;33793;-80
2023/08/24 09:43:18;;;;;;;4.03;1.33;;;;;;;30.34;40.60;99706.81;4476812;32;33897;-79
2023/08/24 09:45:51;;;;;;;2.62;1.27;;;;;;;30.40;40.17;99703.56;4475833;32;32322;-79
2023/08/24 09:48:21;;;;;;;3.25;1.08;;;;;;;30.56;41.00;99701.06;4481794;32;34209;-80
2023/08/24 09:50:51;;;;;;;1.80;1.02;;;;;;;30.75;40.04;99696.63;4474380;32;32672;-80
2023/08/24 09:53:21;;;;;;;2.58;1.17;;;;;;;30.36;39.59;99711.03;4467248;32;32891;-79
2023/08/24 09:55:55;;;;;;;3.50;1.80;;;;;;;30.59;39.33;99705.28;4473169;32;32314;-80
2023/08/24 09:58:25;;;;;;;1.87;1.25;;;;;;;30.70;39.24;99704.25;4465865;32;34468;-79
2023/08/24 10:00:54;;;;;;;;;;;;;;;30.90;38.30;99713.88;4469835;32;34286;-80
2023/08/24 10:03:26;;;;;;;2.08;0.98;;;;;;;31.11;38.18;99712.78;4470234;32;34540;-79
2023/08/24 10:05:58;;;;;;;3.28;1.50;;;;;;;30.97;37.63;99704.25;4475691;32;33594;-82
2023/08/24 10:08:38;;;;;;;3.40;1.58;;;;;;;31.10;37.31;99706.59;4477281;32;34218;-82
2023/08/24 10:11:07;;;;;;;1.90;1.00;;;;;;;31.22;36.21;99709.88;4465598;32;33674;-82
2023/08/24 10:13:41;;;;;;;1.50;1.10;;;;;;;31.10;35.76;99701.22;4467308;32;33257;-81
2023/08/24 10:16:12;;;;;;;2.30;1.10;;;;;;;31.01;36.21;99705.63;4467493;31;34099;-79
2023/08/24 10:18:42;;;;;;;3.00;1.55;;;;;;;31.31;35.69;99700.91;4476668;32;33972;-80
2023/08/24 10:21:11;;;;;;;2.00;1.20;;;;;;;31.23;35.56;99700.84;4466726;32;34052;-79
2023/08/24 10:23:39;;;;;;;3.17;1.42;;;;;;;31.38;34.60;99695.78;4476810;32;34027;-79
2023/08/24 10:26:09;;;;;;;2.55;1.20;;;;;;;31.27;35.34;99707.59;4476380;32;33562;-80
2023/08/24 10:28:40;;;;;;;1.75;0.80;;;;;;;31.10;36.27;99703.91;4475592;32;33545;-79
2023/08/24 10:31:11;;;;;;;2.45;1.25;;;;;;;31.53;35.75;99685.38;4476179;32;34804;-80
2023/08/24 10:33:40;;;;;;;2.17;1.30;;;;;;;31.66;35.99;99678.63;4467297;32;33857;-80
2023/08/24 10:36:09;;;;;;;2.67;1.35;;;;;;;31.80;36.38;99682.56;4481917;32;32779;-79
2023/08/24 10:38:42;;;;;;;2.28;1.17;;;;;;;31.84;35.27;99683.09;4476404;32;33644;-79
2023/08/24 10:41:13;;;;;;;2.28;1.20;;;;;;;31.62;35.56;99679.06;4459491;32;34570;-80
2023/08/24 10:43:50;;;;;;;4.12;1.87;;;;;;;31.91;34.30;99669.88;4466067;32;33849;-79
2023/08/24 10:46:19;;;;;;;1.42;1.10;;;;;;;32.24;34.38;99677.16;4468463;32;33031;-82
2023/08/24 10:49:08;;;;;;;2.90;1.12;;;;;;;31.99;34.03;99672.63;4468332;32;33793;-82
2023/08/24 10:51:44;;;;;;;1.58;1.00;;;;;;;31.67;34.04;99666.03;4463297;32;33932;-82
2023/08/24 10:54:15;;;;;;;1.83;1.10;;;;;;;31.76;34.68;99662.41;4464652;32;33757;-82
2023/08/24 10:56:53;;;;;;;2.12;1.50;;;;;;;31.65;34.68;99660.84;4465390;32;32360;-82
2023/08/24 10:59:24;;;;;;;2.50;1.20;;;;;;;31.62;34.20;99661.12;4465102;32;33207;-82
2023/08/24 11:01:58;;;;;;;2.95;1.40;;;;;;;32.09;35.21;99665.34;4477099;32;32844;-82
2023/08/24 11:04:28;;;;;;;3.47;1.48;;;;;;;32.02;34.14;99666.97;4464883;32;35397;-82
2023/08/24 11:06:59;;;;;;;2.92;1.45;;;;;;;32.01;34.94;99676.84;4464751;32;33022;-80
2023/08/24 11:09:45;;;;;;;3.65;1.62;;;;;;;31.91;34.47;99661.84;4459692;32;34045;-80
2023/08/24 11:12:14;;;;;;;1.70;1.08;;;;;;;32.24;33.79;99665.59;4462013;32;33599;-80
2023/08/24 11:14:54;;;;;;;3.20;2.10;;;;;;;32.22;33.53;99673.78;4468958;32;33406;-80
2023/08/24 11:17:23;;;;;;;2.28;1.30;;;;;;;32.40;33.26;99671.00;4464642;32;33031;-80
2023/08/24 11:19:53;;;;;;;2.33;1.35;;;;;;;32.28;34.79;99665.09;4459253;32;34566;-80
2023/08/24 11:22:22;;;;;;;1.80;1.12;;;;;;;32.23;33.03;99670.09;4466840;32;33493;-80
2023/08/24 11:24:50;;;;;;;1.17;1.00;;;;;;;31.98;33.60;99663.75;4473090;32;33961;-80
2023/08/24 11:27:21;;;;;;;2.45;1.42;;;;;;;32.01;33.89;99666.13;4469059;32;33806;-80
2023/08/24 11:30:00;;;;;;;2.42;1.50;;;;;;;31.82;34.68;99664.47;4466607;32;32985;-80
2023/08/24 11:32:30;;;;;;;3.47;1.60;;;;;;;32.23;34.43;99662.03;4459774;32;35026;-80
2023/08/24 11:34:58;;;;;;;2.20;1.10;;;;;;;32.19;34.14;99662.53;4459157;32;34464;-80
2023/08/24 11:37:27;;;;;;;3.22;1.52;;;;;;;32.44;34.20;99658.94;4464812;32;33076;-80
2023/08/24 11:39:56;;;;;;;2.75;1.62;;;;;;;32.60;34.55;99655.50;4460803;32;33650;-79
2023/08/24 11:42:25;;;;;;;3.70;1.65;;;;;;;32.55;34.18;99639.06;4466346;32;34323;-80
2023/08/24 11:44:54;;;;;;;2.20;1.20;;;;;;;32.47;34.48;99644.34;4463854;32;33339;-80
2023/08/24 11:47:24;;;;;;;3.87;1.80;;;;;;;32.58;35.31;99649.47;4474493;32;33154;-82